sensor_id;sensor_type;location;lat;lon;timestamp;P1;durP1;ratioP1;P2;durP2;ratioP2
68438;SDS011;55421;51.600;5.718;2023-06-14T00:01:10;8.20;;;6.50;;
68438;SDS011;55421;51.600;5.718;2023-06-14T00:03:43;9.30;;;6.90;;
68438;SDS011;55421;51.600;5.718;2023-06-14T00:06:10;7.10;;;6.30;;
68438;SDS011;55421;51.600;5.718;2023-06-14T00:08:37;8.80;;;6.60;;
68438;SDS011;55421;51.600;5.718;2023-06-14T00:11:04;9.90;;;7.50;;
68438;SDS011;55421;51.600;5.718;2023-06-14T00:13:31;10.90;;;6.10;;
68438;SDS011;55421;51.600;5.718;2023-06-14T00:15:57;11.50;;;6.70;;
68438;SDS011;55421;51.600;5.718;2023-06-14T00:18:24;8.40;;;6.80;;
68438;SDS011;55421;51.600;5.718;2023-06-14T00:20:51;8.40;;;6.20;;
68438;SDS011;55421;51.600;5.718;2023-06-14T00:23:18;9.80;;;6.50;;
68438;SDS011;55421;51.600;5.718;2023-06-14T00:25:45;7.80;;;6.10;;
68438;SDS011;55421;51.600;5.718;2023-06-14T00:28:11;9.70;;;6.60;;
68438;SDS011;55421;51.600;5.718;2023-06-14T00:30:38;8.70;;;6.00;;
68438;SDS011;55421;51.600;5.718;2023-06-14T00:33:04;8.50;;;6.30;;
68438;SDS011;55421;51.600;5.718;2023-06-14T00:35:31;10.90;;;6.40;;
68438;SDS011;55421;51.600;5.718;2023-06-14T00:37:58;9.10;;;6.10;;
68438;SDS011;55421;51.600;5.718;2023-06-14T00:40:25;9.00;;;6.10;;
68438;SDS011;55421;51.600;5.718;2023-06-14T00:42:52;6.60;;;5.90;;
68438;SDS011;55421;51.600;5.718;2023-06-14T00:45:18;9.00;;;5.70;;
68438;SDS011;55421;51.600;5.718;2023-06-14T00:47:46;12.70;;;5.90;;
68438;SDS011;55421;51.600;5.718;2023-06-14T00:50:13;8.40;;;5.70;;
68438;SDS011;55421;51.600;5.718;2023-06-14T00:52:40;8.00;;;5.70;;
68438;SDS011;55421;51.600;5.718;2023-06-14T00:55:09;6.60;;;5.60;;
68438;SDS011;55421;51.600;5.718;2023-06-14T00:57:35;9.10;;;6.00;;
68438;SDS011;55421;51.600;5.718;2023-06-14T01:00:04;24.40;;;6.30;;
68438;SDS011;55421;51.600;5.718;2023-06-14T01:02:36;7.70;;;5.40;;
68438;SDS011;55421;51.600;5.718;2023-06-14T01:05:04;7.50;;;5.30;;
68438;SDS011;55421;51.600;5.718;2023-06-14T01:08:01;9.10;;;5.50;;
68438;SDS011;55421;51.600;5.718;2023-06-14T01:10:48;8.30;;;5.20;;
68438;SDS011;55421;51.600;5.718;2023-06-14T01:13:43;5.90;;;5.20;;
68438;SDS011;55421;51.600;5.718;2023-06-14T01:16:13;8.90;;;5.30;;
68438;SDS011;55421;51.600;5.718;2023-06-14T01:18:41;6.80;;;5.30;;
68438;SDS011;55421;51.600;5.718;2023-06-14T01:21:22;7.20;;;5.40;;
68438;SDS011;55421;51.600;5.718;2023-06-14T01:23:52;5.80;;;5.20;;
68438;SDS011;55421;51.600;5.718;2023-06-14T01:26:20;6.20;;;5.20;;
68438;SDS011;55421;51.600;5.718;2023-06-14T01:28:49;6.50;;;5.30;;
68438;SDS011;55421;51.600;5.718;2023-06-14T01:31:20;8.00;;;5.50;;
68438;SDS011;55421;51.600;5.718;2023-06-14T01:33:51;12.80;;;5.30;;
68438;SDS011;55421;51.600;5.718;2023-06-14T01:36:22;9.50;;;5.20;;
68438;SDS011;55421;51.600;5.718;2023-06-14T01:38:52;9.80;;;5.60;;
68438;SDS011;55421;51.600;5.718;2023-06-14T01:41:20;6.80;;;4.90;;
68438;SDS011;55421;51.600;5.718;2023-06-14T01:43:48;10.90;;;5.30;;
68438;SDS011;55421;51.600;5.718;2023-06-14T01:46:17;6.10;;;4.80;;
68438;SDS011;55421;51.600;5.718;2023-06-14T01:48:44;6.60;;;5.10;;
68438;SDS011;55421;51.600;5.718;2023-06-14T01:51:10;8.70;;;5.60;;
68438;SDS011;55421;51.600;5.718;2023-06-14T01:53:37;8.60;;;5.30;;
68438;SDS011;55421;51.600;5.718;2023-06-14T01:56:04;7.70;;;5.00;;
68438;SDS011;55421;51.600;5.718;2023-06-14T01:58:31;8.20;;;5.30;;
68438;SDS011;55421;51.600;5.718;2023-06-14T02:00:59;7.50;;;5.20;;
68438;SDS011;55421;51.600;5.718;2023-06-14T02:03:27;9.70;;;5.40;;
68438;SDS011;55421;51.600;5.718;2023-06-14T02:05:54;7.10;;;5.00;;
68438;SDS011;55421;51.600;5.718;2023-06-14T02:08:21;6.10;;;5.00;;
68438;SDS011;55421;51.600;5.718;2023-06-14T02:10:49;6.00;;;5.20;;
68438;SDS011;55421;51.600;5.718;2023-06-14T02:13:16;10.60;;;5.70;;
68438;SDS011;55421;51.600;5.718;2023-06-14T02:15:43;7.70;;;5.30;;
68438;SDS011;55421;51.600;5.718;2023-06-14T02:18:11;10.50;;;5.30;;
68438;SDS011;55421;51.600;5.718;2023-06-14T02:20:38;10.90;;;5.50;;
68438;SDS011;55421;51.600;5.718;2023-06-14T02:23:04;10.50;;;5.10;;
68438;SDS011;55421;51.600;5.718;2023-06-14T02:25:34;8.10;;;5.30;;
68438;SDS011;55421;51.600;5.718;2023-06-14T02:28:01;10.70;;;5.10;;
68438;SDS011;55421;51.600;5.718;2023-06-14T02:30:27;7.90;;;5.20;;
68438;SDS011;55421;51.600;5.718;2023-06-14T02:32:54;10.80;;;5.40;;
68438;SDS011;55421;51.600;5.718;2023-06-14T02:35:20;8.50;;;5.60;;
68438;SDS011;55421;51.600;5.718;2023-06-14T02:37:48;8.20;;;5.20;;
68438;SDS011;55421;51.600;5.718;2023-06-14T02:40:15;8.10;;;5.00;;
68438;SDS011;55421;51.600;5.718;2023-06-14T02:42:41;7.80;;;5.10;;
68438;SDS011;55421;51.600;5.718;2023-06-14T02:45:08;10.10;;;5.30;;
68438;SDS011;55421;51.600;5.718;2023-06-14T02:47:35;6.40;;;4.90;;
68438;SDS011;55421;51.600;5.718;2023-06-14T02:50:02;7.10;;;4.90;;
68438;SDS011;55421;51.600;5.718;2023-06-14T02:52:29;9.70;;;5.40;;
68438;SDS011;55421;51.600;5.718;2023-06-14T02:54:55;8.30;;;4.80;;
68438;SDS011;55421;51.600;5.718;2023-06-14T02:57:22;9.40;;;5.40;;
68438;SDS011;55421;51.600;5.718;2023-06-14T02:59:49;7.60;;;5.30;;
68438;SDS011;55421;51.600;5.718;2023-06-14T03:02:15;8.20;;;5.20;;
68438;SDS011;55421;51.600;5.718;2023-06-14T03:04:42;7.90;;;5.20;;
68438;SDS011;55421;51.600;5.718;2023-06-14T03:07:09;9.20;;;5.00;;
68438;SDS011;55421;51.600;5.718;2023-06-14T03:09:36;10.40;;;5.30;;
68438;SDS011;55421;51.600;5.718;2023-06-14T03:12:04;8.30;;;5.50;;
68438;SDS011;55421;51.600;5.718;2023-06-14T03:14:35;13.10;;;5.90;;
68438;SDS011;55421;51.600;5.718;2023-06-14T03:17:02;11.70;;;5.50;;
68438;SDS011;55421;51.600;5.718;2023-06-14T03:19:30;9.70;;;5.70;;
68438;SDS011;55421;51.600;5.718;2023-06-14T03:21:57;11.60;;;5.50;;
68438;SDS011;55421;51.600;5.718;2023-06-14T03:24:25;8.30;;;5.50;;
68438;SDS011;55421;51.600;5.718;2023-06-14T03:26:54;10.80;;;5.30;;
68438;SDS011;55421;51.600;5.718;2023-06-14T03:29:21;6.90;;;5.00;;
68438;SDS011;55421;51.600;5.718;2023-06-14T03:31:58;8.00;;;4.80;;
68438;SDS011;55421;51.600;5.718;2023-06-14T03:34:29;8.80;;;5.60;;
68438;SDS011;55421;51.600;5.718;2023-06-14T03:36:55;6.20;;;5.20;;
68438;SDS011;55421;51.600;5.718;2023-06-14T03:39:22;9.70;;;5.30;;
68438;SDS011;55421;51.600;5.718;2023-06-14T03:41:48;6.80;;;5.20;;
68438;SDS011;55421;51.600;5.718;2023-06-14T03:44:16;7.20;;;5.10;;
68438;SDS011;55421;51.600;5.718;2023-06-14T03:46:45;8.00;;;5.70;;
68438;SDS011;55421;51.600;5.718;2023-06-14T03:49:13;9.20;;;5.40;;
68438;SDS011;55421;51.600;5.718;2023-06-14T03:51:40;10.50;;;6.60;;
68438;SDS011;55421;51.600;5.718;2023-06-14T03:54:08;12.00;;;5.50;;
68438;SDS011;55421;51.600;5.718;2023-06-14T03:56:34;7.90;;;5.30;;
68438;SDS011;55421;51.600;5.718;2023-06-14T03:59:02;7.70;;;5.00;;
68438;SDS011;55421;51.600;5.718;2023-06-14T04:01:28;8.70;;;5.40;;
68438;SDS011;55421;51.600;5.718;2023-06-14T04:03:56;6.80;;;5.50;;
68438;SDS011;55421;51.600;5.718;2023-06-14T04:06:24;8.10;;;5.30;;
68438;SDS011;55421;51.600;5.718;2023-06-14T04:08:51;10.80;;;5.40;;
68438;SDS011;55421;51.600;5.718;2023-06-14T04:11:18;12.10;;;5.50;;
68438;SDS011;55421;51.600;5.718;2023-06-14T04:13:45;7.10;;;4.90;;
68438;SDS011;55421;51.600;5.718;2023-06-14T04:16:14;6.60;;;4.70;;
68438;SDS011;55421;51.600;5.718;2023-06-14T04:18:41;9.60;;;5.00;;
68438;SDS011;55421;51.600;5.718;2023-06-14T04:21:07;7.30;;;5.30;;
68438;SDS011;55421;51.600;5.718;2023-06-14T04:23:34;5.80;;;4.80;;
68438;SDS011;55421;51.600;5.718;2023-06-14T04:26:01;9.10;;;5.00;;
68438;SDS011;55421;51.600;5.718;2023-06-14T04:28:27;8.40;;;4.40;;
68438;SDS011;55421;51.600;5.718;2023-06-14T04:30:54;9.70;;;4.60;;
68438;SDS011;55421;51.600;5.718;2023-06-14T04:33:21;7.70;;;4.40;;
68438;SDS011;55421;51.600;5.718;2023-06-14T04:35:51;7.50;;;4.60;;
68438;SDS011;55421;51.600;5.718;2023-06-14T04:38:20;8.40;;;4.60;;
68438;SDS011;55421;51.600;5.718;2023-06-14T04:40:51;8.70;;;4.60;;
68438;SDS011;55421;51.600;5.718;2023-06-14T04:43:19;5.50;;;4.20;;
68438;SDS011;55421;51.600;5.718;2023-06-14T04:45:51;5.20;;;3.80;;
68438;SDS011;55421;51.600;5.718;2023-06-14T04:48:18;4.90;;;3.90;;
68438;SDS011;55421;51.600;5.718;2023-06-14T04:50:46;5.50;;;4.20;;
68438;SDS011;55421;51.600;5.718;2023-06-14T04:53:13;7.50;;;4.10;;
68438;SDS011;55421;51.600;5.718;2023-06-14T04:55:40;6.60;;;4.10;;
68438;SDS011;55421;51.600;5.718;2023-06-14T04:58:11;6.60;;;4.40;;
68438;SDS011;55421;51.600;5.718;2023-06-14T05:00:39;4.60;;;3.70;;
68438;SDS011;55421;51.600;5.718;2023-06-14T05:03:05;5.90;;;4.30;;
68438;SDS011;55421;51.600;5.718;2023-06-14T05:05:33;7.50;;;4.10;;
68438;SDS011;55421;51.600;5.718;2023-06-14T05:08:00;4.60;;;3.70;;
68438;SDS011;55421;51.600;5.718;2023-06-14T05:10:26;5.20;;;3.90;;
68438;SDS011;55421;51.600;5.718;2023-06-14T05:12:53;5.60;;;3.80;;
68438;SDS011;55421;51.600;5.718;2023-06-14T05:15:20;4.60;;;3.50;;
68438;SDS011;55421;51.600;5.718;2023-06-14T05:17:51;5.60;;;3.80;;
68438;SDS011;55421;51.600;5.718;2023-06-14T05:20:22;8.50;;;3.90;;
68438;SDS011;55421;51.600;5.718;2023-06-14T05:22:52;7.10;;;3.60;;
68438;SDS011;55421;51.600;5.718;2023-06-14T05:25:20;4.30;;;3.70;;
68438;SDS011;55421;51.600;5.718;2023-06-14T05:27:47;8.00;;;3.90;;
68438;SDS011;55421;51.600;5.718;2023-06-14T05:30:15;6.90;;;4.00;;
68438;SDS011;55421;51.600;5.718;2023-06-14T05:32:41;6.40;;;3.70;;
68438;SDS011;55421;51.600;5.718;2023-06-14T05:35:08;6.10;;;4.20;;
68438;SDS011;55421;51.600;5.718;2023-06-14T05:37:35;6.40;;;3.70;;
68438;SDS011;55421;51.600;5.718;2023-06-14T05:40:02;8.30;;;3.90;;
68438;SDS011;55421;51.600;5.718;2023-06-14T05:42:32;5.80;;;3.80;;
68438;SDS011;55421;51.600;5.718;2023-06-14T05:44:59;5.00;;;3.70;;
68438;SDS011;55421;51.600;5.718;2023-06-14T05:47:26;5.60;;;4.00;;
68438;SDS011;55421;51.600;5.718;2023-06-14T05:49:53;7.80;;;3.70;;
68438;SDS011;55421;51.600;5.718;2023-06-14T05:52:21;9.20;;;3.70;;
68438;SDS011;55421;51.600;5.718;2023-06-14T05:54:47;6.90;;;3.60;;
68438;SDS011;55421;51.600;5.718;2023-06-14T05:57:14;5.00;;;3.20;;
68438;SDS011;55421;51.600;5.718;2023-06-14T05:59:41;5.70;;;3.80;;
68438;SDS011;55421;51.600;5.718;2023-06-14T06:02:07;4.50;;;3.10;;
68438;SDS011;55421;51.600;5.718;2023-06-14T06:04:34;4.30;;;3.90;;
68438;SDS011;55421;51.600;5.718;2023-06-14T06:07:01;4.80;;;3.70;;
68438;SDS011;55421;51.600;5.718;2023-06-14T06:09:27;6.50;;;3.50;;
68438;SDS011;55421;51.600;5.718;2023-06-14T06:11:54;8.80;;;3.70;;
68438;SDS011;55421;51.600;5.718;2023-06-14T06:14:21;6.90;;;3.90;;
68438;SDS011;55421;51.600;5.718;2023-06-14T06:16:47;5.40;;;3.40;;
68438;SDS011;55421;51.600;5.718;2023-06-14T06:19:14;7.30;;;3.40;;
68438;SDS011;55421;51.600;5.718;2023-06-14T06:21:41;8.60;;;4.10;;
68438;SDS011;55421;51.600;5.718;2023-06-14T06:24:07;4.90;;;3.90;;
68438;SDS011;55421;51.600;5.718;2023-06-14T06:26:34;4.80;;;3.60;;
68438;SDS011;55421;51.600;5.718;2023-06-14T06:29:00;8.10;;;3.50;;
68438;SDS011;55421;51.600;5.718;2023-06-14T06:31:28;5.00;;;3.70;;
68438;SDS011;55421;51.600;5.718;2023-06-14T06:33:55;8.10;;;3.70;;
68438;SDS011;55421;51.600;5.718;2023-06-14T06:36:22;4.40;;;3.90;;
68438;SDS011;55421;51.600;5.718;2023-06-14T06:38:48;5.70;;;3.70;;
68438;SDS011;55421;51.600;5.718;2023-06-14T06:41:15;7.00;;;3.90;;
68438;SDS011;55421;51.600;5.718;2023-06-14T06:43:42;4.00;;;3.40;;
68438;SDS011;55421;51.600;5.718;2023-06-14T06:46:08;7.90;;;3.70;;
68438;SDS011;55421;51.600;5.718;2023-06-14T06:48:35;6.90;;;3.70;;
68438;SDS011;55421;51.600;5.718;2023-06-14T06:51:01;6.80;;;3.60;;
68438;SDS011;55421;51.600;5.718;2023-06-14T06:53:28;7.30;;;4.30;;
68438;SDS011;55421;51.600;5.718;2023-06-14T06:55:54;8.90;;;3.50;;
68438;SDS011;55421;51.600;5.718;2023-06-14T06:58:21;6.40;;;3.70;;
68438;SDS011;55421;51.600;5.718;2023-06-14T07:00:48;5.00;;;3.70;;
68438;SDS011;55421;51.600;5.718;2023-06-14T07:03:15;7.80;;;3.80;;
68438;SDS011;55421;51.600;5.718;2023-06-14T07:05:42;4.60;;;3.10;;
68438;SDS011;55421;51.600;5.718;2023-06-14T07:08:08;6.40;;;3.20;;
68438;SDS011;55421;51.600;5.718;2023-06-14T07:10:35;4.00;;;3.40;;
68438;SDS011;55421;51.600;5.718;2023-06-14T07:13:01;4.00;;;3.40;;
68438;SDS011;55421;51.600;5.718;2023-06-14T07:15:28;6.30;;;3.50;;
68438;SDS011;55421;51.600;5.718;2023-06-14T07:17:55;5.60;;;3.40;;
68438;SDS011;55421;51.600;5.718;2023-06-14T07:20:25;4.40;;;3.40;;
68438;SDS011;55421;51.600;5.718;2023-06-14T07:22:52;3.30;;;2.70;;
68438;SDS011;55421;51.600;5.718;2023-06-14T07:25:18;7.00;;;3.10;;
68438;SDS011;55421;51.600;5.718;2023-06-14T07:27:46;7.90;;;2.80;;
68438;SDS011;55421;51.600;5.718;2023-06-14T07:30:13;6.50;;;3.30;;
68438;SDS011;55421;51.600;5.718;2023-06-14T07:32:40;4.60;;;3.10;;
68438;SDS011;55421;51.600;5.718;2023-06-14T07:35:06;4.50;;;3.20;;
68438;SDS011;55421;51.600;5.718;2023-06-14T07:37:33;11.00;;;3.00;;
68438;SDS011;55421;51.600;5.718;2023-06-14T07:40:01;5.30;;;3.30;;
68438;SDS011;55421;51.600;5.718;2023-06-14T07:42:30;4.20;;;3.10;;
68438;SDS011;55421;51.600;5.718;2023-06-14T07:44:57;5.40;;;2.90;;
68438;SDS011;55421;51.600;5.718;2023-06-14T07:47:23;4.90;;;3.00;;
68438;SDS011;55421;51.600;5.718;2023-06-14T07:49:50;4.00;;;2.50;;
68438;SDS011;55421;51.600;5.718;2023-06-14T07:52:16;8.30;;;2.80;;
68438;SDS011;55421;51.600;5.718;2023-06-14T07:54:43;5.40;;;2.80;;
68438;SDS011;55421;51.600;5.718;2023-06-14T07:57:10;4.70;;;2.80;;
68438;SDS011;55421;51.600;5.718;2023-06-14T07:59:37;6.50;;;3.10;;
68438;SDS011;55421;51.600;5.718;2023-06-14T08:02:04;3.30;;;2.50;;
68438;SDS011;55421;51.600;5.718;2023-06-14T08:04:31;4.00;;;2.60;;
68438;SDS011;55421;51.600;5.718;2023-06-14T08:06:59;4.90;;;2.50;;
68438;SDS011;55421;51.600;5.718;2023-06-14T08:09:27;6.00;;;2.70;;
68438;SDS011;55421;51.600;5.718;2023-06-14T08:11:55;3.90;;;2.40;;
68438;SDS011;55421;51.600;5.718;2023-06-14T08:14:22;4.30;;;2.80;;
68438;SDS011;55421;51.600;5.718;2023-06-14T08:16:49;3.50;;;2.20;;
68438;SDS011;55421;51.600;5.718;2023-06-14T08:19:16;2.80;;;2.40;;
68438;SDS011;55421;51.600;5.718;2023-06-14T08:21:42;4.10;;;2.50;;
68438;SDS011;55421;51.600;5.718;2023-06-14T08:24:13;12.60;;;3.30;;
68438;SDS011;55421;51.600;5.718;2023-06-14T08:26:40;2.70;;;2.50;;
68438;SDS011;55421;51.600;5.718;2023-06-14T08:29:06;7.20;;;2.10;;
68438;SDS011;55421;51.600;5.718;2023-06-14T08:31:33;2.30;;;2.10;;
68438;SDS011;55421;51.600;5.718;2023-06-14T08:34:00;5.70;;;2.30;;
68438;SDS011;55421;51.600;5.718;2023-06-14T08:36:26;1.90;;;1.80;;
68438;SDS011;55421;51.600;5.718;2023-06-14T08:38:53;3.20;;;2.00;;
68438;SDS011;55421;51.600;5.718;2023-06-14T08:41:23;2.30;;;1.60;;
68438;SDS011;55421;51.600;5.718;2023-06-14T08:43:51;3.50;;;1.70;;
68438;SDS011;55421;51.600;5.718;2023-06-14T08:46:18;3.20;;;1.60;;
68438;SDS011;55421;51.600;5.718;2023-06-14T08:48:49;4.30;;;1.70;;
68438;SDS011;55421;51.600;5.718;2023-06-14T08:51:19;5.40;;;2.10;;
68438;SDS011;55421;51.600;5.718;2023-06-14T08:53:53;1.60;;;1.40;;
68438;SDS011;55421;51.600;5.718;2023-06-14T08:56:27;2.70;;;1.30;;
68438;SDS011;55421;51.600;5.718;2023-06-14T08:58:57;2.40;;;1.20;;
68438;SDS011;55421;51.600;5.718;2023-06-14T09:01:27;2.00;;;1.00;;
68438;SDS011;55421;51.600;5.718;2023-06-14T09:03:53;2.60;;;1.40;;
68438;SDS011;55421;51.600;5.718;2023-06-14T09:06:21;2.10;;;1.40;;
68438;SDS011;55421;51.600;5.718;2023-06-14T09:08:49;2.90;;;1.30;;
68438;SDS011;55421;51.600;5.718;2023-06-14T09:11:17;3.00;;;1.40;;
68438;SDS011;55421;51.600;5.718;2023-06-14T09:13:46;1.80;;;1.40;;
68438;SDS011;55421;51.600;5.718;2023-06-14T09:16:13;3.40;;;1.40;;
68438;SDS011;55421;51.600;5.718;2023-06-14T09:18:41;4.40;;;1.70;;
68438;SDS011;55421;51.600;5.718;2023-06-14T09:21:11;4.40;;;1.60;;
68438;SDS011;55421;51.600;5.718;2023-06-14T09:23:40;2.00;;;1.30;;
68438;SDS011;55421;51.600;5.718;2023-06-14T09:26:13;2.10;;;1.40;;
68438;SDS011;55421;51.600;5.718;2023-06-14T09:28:41;1.30;;;1.20;;
68438;SDS011;55421;51.600;5.718;2023-06-14T09:31:14;2.50;;;1.40;;
68438;SDS011;55421;51.600;5.718;2023-06-14T09:33:42;2.50;;;1.70;;
68438;SDS011;55421;51.600;5.718;2023-06-14T09:36:18;2.00;;;1.80;;
68438;SDS011;55421;51.600;5.718;2023-06-14T09:38:58;2.20;;;1.50;;
68438;SDS011;55421;51.600;5.718;2023-06-14T09:41:40;3.60;;;1.50;;
68438;SDS011;55421;51.600;5.718;2023-06-14T09:44:08;2.30;;;1.60;;
68438;SDS011;55421;51.600;5.718;2023-06-14T09:46:36;5.90;;;1.50;;
68438;SDS011;55421;51.600;5.718;2023-06-14T09:49:04;2.10;;;1.40;;
68438;SDS011;55421;51.600;5.718;2023-06-14T09:51:31;2.90;;;1.80;;
68438;SDS011;55421;51.600;5.718;2023-06-14T09:54:00;3.30;;;1.60;;
68438;SDS011;55421;51.600;5.718;2023-06-14T09:56:36;1.70;;;1.60;;
68438;SDS011;55421;51.600;5.718;2023-06-14T09:59:05;4.10;;;1.70;;
68438;SDS011;55421;51.600;5.718;2023-06-14T10:01:41;3.20;;;1.50;;
68438;SDS011;55421;51.600;5.718;2023-06-14T10:04:10;1.70;;;1.60;;
68438;SDS011;55421;51.600;5.718;2023-06-14T10:06:40;4.60;;;1.90;;
68438;SDS011;55421;51.600;5.718;2023-06-14T10:09:09;2.10;;;1.60;;
68438;SDS011;55421;51.600;5.718;2023-06-14T10:11:37;2.90;;;1.60;;
68438;SDS011;55421;51.600;5.718;2023-06-14T10:14:11;2.00;;;1.70;;
68438;SDS011;55421;51.600;5.718;2023-06-14T10:19:25;1.70;;;1.60;;
68438;SDS011;55421;51.600;5.718;2023-06-14T10:22:13;2.30;;;1.60;;
68438;SDS011;55421;51.600;5.718;2023-06-14T10:24:45;3.30;;;1.80;;
68438;SDS011;55421;51.600;5.718;2023-06-14T10:27:15;1.70;;;1.60;;
68438;SDS011;55421;51.600;5.718;2023-06-14T10:32:20;3.30;;;1.70;;
68438;SDS011;55421;51.600;5.718;2023-06-14T10:34:57;2.00;;;1.70;;
68438;SDS011;55421;51.600;5.718;2023-06-14T10:37:25;3.30;;;1.90;;
68438;SDS011;55421;51.600;5.718;2023-06-14T10:39:51;2.40;;;1.70;;
68438;SDS011;55421;51.600;5.718;2023-06-14T10:42:19;1.90;;;1.70;;
68438;SDS011;55421;51.600;5.718;2023-06-14T10:44:50;6.00;;;2.10;;
68438;SDS011;55421;51.600;5.718;2023-06-14T10:47:33;3.10;;;1.70;;
68438;SDS011;55421;51.600;5.718;2023-06-14T10:50:10;5.80;;;1.60;;
68438;SDS011;55421;51.600;5.718;2023-06-14T10:52:41;2.60;;;1.60;;
68438;SDS011;55421;51.600;5.718;2023-06-14T10:55:11;2.30;;;1.40;;
68438;SDS011;55421;51.600;5.718;2023-06-14T11:00:13;2.70;;;1.60;;
68438;SDS011;55421;51.600;5.718;2023-06-14T11:05:28;4.50;;;1.70;;
68438;SDS011;55421;51.600;5.718;2023-06-14T11:11:32;2.90;;;1.30;;
68438;SDS011;55421;51.600;5.718;2023-06-14T11:14:02;1.50;;;1.40;;
68438;SDS011;55421;51.600;5.718;2023-06-14T11:16:29;2.20;;;1.40;;
68438;SDS011;55421;51.600;5.718;2023-06-14T11:18:55;1.60;;;1.40;;
68438;SDS011;55421;51.600;5.718;2023-06-14T11:21:23;4.10;;;1.60;;
68438;SDS011;55421;51.600;5.718;2023-06-14T11:23:51;4.60;;;1.40;;
68438;SDS011;55421;51.600;5.718;2023-06-14T11:26:26;1.90;;;1.70;;
68438;SDS011;55421;51.600;5.718;2023-06-14T11:29:00;3.40;;;1.50;;
68438;SDS011;55421;51.600;5.718;2023-06-14T11:31:28;2.90;;;1.70;;
68438;SDS011;55421;51.600;5.718;2023-06-14T11:33:56;2.50;;;1.60;;
68438;SDS011;55421;51.600;5.718;2023-06-14T11:36:26;2.20;;;1.60;;
68438;SDS011;55421;51.600;5.718;2023-06-14T11:39:06;1.50;;;1.40;;
68438;SDS011;55421;51.600;5.718;2023-06-14T11:41:40;1.90;;;1.60;;
68438;SDS011;55421;51.600;5.718;2023-06-14T11:44:08;2.10;;;1.40;;
68438;SDS011;55421;51.600;5.718;2023-06-14T11:46:35;3.50;;;1.40;;
68438;SDS011;55421;51.600;5.718;2023-06-14T11:49:03;1.50;;;1.40;;
68438;SDS011;55421;51.600;5.718;2023-06-14T11:51:32;2.50;;;1.80;;
68438;SDS011;55421;51.600;5.718;2023-06-14T11:54:01;5.30;;;1.70;;
68438;SDS011;55421;51.600;5.718;2023-06-14T11:56:31;2.00;;;1.40;;
68438;SDS011;55421;51.600;5.718;2023-06-14T11:58:58;1.60;;;1.50;;
68438;SDS011;55421;51.600;5.718;2023-06-14T12:01:25;1.60;;;1.50;;
68438;SDS011;55421;51.600;5.718;2023-06-14T12:03:53;2.20;;;1.40;;
68438;SDS011;55421;51.600;5.718;2023-06-14T12:06:28;3.10;;;1.60;;
68438;SDS011;55421;51.600;5.718;2023-06-14T12:08:59;3.00;;;1.60;;
68438;SDS011;55421;51.600;5.718;2023-06-14T12:11:32;4.50;;;1.50;;
68438;SDS011;55421;51.600;5.718;2023-06-14T12:13:59;2.30;;;2.00;;
68438;SDS011;55421;51.600;5.718;2023-06-14T12:16:33;2.20;;;1.50;;
68438;SDS011;55421;51.600;5.718;2023-06-14T12:19:07;1.90;;;1.50;;
68438;SDS011;55421;51.600;5.718;2023-06-14T12:21:37;4.90;;;1.40;;
68438;SDS011;55421;51.600;5.718;2023-06-14T12:24:05;3.30;;;1.40;;
68438;SDS011;55421;51.600;5.718;2023-06-14T12:26:33;2.30;;;1.60;;
68438;SDS011;55421;51.600;5.718;2023-06-14T12:28:59;2.70;;;1.50;;
68438;SDS011;55421;51.600;5.718;2023-06-14T12:31:26;2.10;;;1.70;;
68438;SDS011;55421;51.600;5.718;2023-06-14T12:33:52;5.90;;;1.50;;
68438;SDS011;55421;51.600;5.718;2023-06-14T12:36:19;2.70;;;1.60;;
68438;SDS011;55421;51.600;5.718;2023-06-14T12:38:46;4.30;;;1.60;;
68438;SDS011;55421;51.600;5.718;2023-06-14T12:41:12;2.20;;;1.50;;
68438;SDS011;55421;51.600;5.718;2023-06-14T12:43:40;4.90;;;1.60;;
68438;SDS011;55421;51.600;5.718;2023-06-14T12:46:07;1.60;;;1.50;;
68438;SDS011;55421;51.600;5.718;2023-06-14T12:48:33;2.30;;;1.80;;
68438;SDS011;55421;51.600;5.718;2023-06-14T12:51:00;2.60;;;1.60;;
68438;SDS011;55421;51.600;5.718;2023-06-14T12:53:27;2.90;;;1.60;;
68438;SDS011;55421;51.600;5.718;2023-06-14T12:55:53;2.30;;;1.30;;
68438;SDS011;55421;51.600;5.718;2023-06-14T12:58:20;1.50;;;1.30;;
68438;SDS011;55421;51.600;5.718;2023-06-14T13:00:47;1.30;;;1.20;;
68438;SDS011;55421;51.600;5.718;2023-06-14T13:03:14;1.60;;;1.50;;
68438;SDS011;55421;51.600;5.718;2023-06-14T13:05:41;1.50;;;1.40;;
68438;SDS011;55421;51.600;5.718;2023-06-14T13:08:09;3.30;;;1.60;;
68438;SDS011;55421;51.600;5.718;2023-06-14T13:10:35;4.20;;;1.60;;
68438;SDS011;55421;51.600;5.718;2023-06-14T13:13:02;3.50;;;1.50;;
68438;SDS011;55421;51.600;5.718;2023-06-14T13:15:29;2.40;;;1.20;;
68438;SDS011;55421;51.600;5.718;2023-06-14T13:17:55;3.70;;;1.30;;
68438;SDS011;55421;51.600;5.718;2023-06-14T13:20:22;1.80;;;1.50;;
68438;SDS011;55421;51.600;5.718;2023-06-14T13:22:48;4.30;;;1.50;;
68438;SDS011;55421;51.600;5.718;2023-06-14T13:25:15;4.10;;;1.20;;
68438;SDS011;55421;51.600;5.718;2023-06-14T13:27:42;1.30;;;1.20;;
68438;SDS011;55421;51.600;5.718;2023-06-14T13:30:08;3.90;;;1.50;;
68438;SDS011;55421;51.600;5.718;2023-06-14T13:32:35;1.70;;;1.20;;
68438;SDS011;55421;51.600;5.718;2023-06-14T13:35:02;2.10;;;1.10;;
68438;SDS011;55421;51.600;5.718;2023-06-14T13:37:30;1.40;;;1.10;;
68438;SDS011;55421;51.600;5.718;2023-06-14T13:39:57;1.80;;;1.00;;
68438;SDS011;55421;51.600;5.718;2023-06-14T13:42:23;1.90;;;1.10;;
68438;SDS011;55421;51.600;5.718;2023-06-14T13:44:50;3.20;;;1.00;;
68438;SDS011;55421;51.600;5.718;2023-06-14T13:47:17;2.00;;;1.20;;
68438;SDS011;55421;51.600;5.718;2023-06-14T13:49:44;3.20;;;1.00;;
68438;SDS011;55421;51.600;5.718;2023-06-14T13:52:11;1.30;;;1.00;;
68438;SDS011;55421;51.600;5.718;2023-06-14T13:54:39;1.30;;;1.10;;
68438;SDS011;55421;51.600;5.718;2023-06-14T13:57:06;2.30;;;1.00;;
68438;SDS011;55421;51.600;5.718;2023-06-14T13:59:33;1.80;;;1.30;;
68438;SDS011;55421;51.600;5.718;2023-06-14T14:02:00;2.50;;;1.00;;
68438;SDS011;55421;51.600;5.718;2023-06-14T14:04:29;1.00;;;1.00;;
68438;SDS011;55421;51.600;5.718;2023-06-14T14:06:55;1.50;;;1.00;;
68438;SDS011;55421;51.600;5.718;2023-06-14T14:09:22;1.20;;;1.10;;
68438;SDS011;55421;51.600;5.718;2023-06-14T14:11:49;1.80;;;1.10;;
68438;SDS011;55421;51.600;5.718;2023-06-14T14:14:16;3.70;;;1.10;;
68438;SDS011;55421;51.600;5.718;2023-06-14T14:16:42;2.70;;;1.10;;
68438;SDS011;55421;51.600;5.718;2023-06-14T14:19:09;2.10;;;1.40;;
68438;SDS011;55421;51.600;5.718;2023-06-14T14:21:36;1.80;;;1.10;;
68438;SDS011;55421;51.600;5.718;2023-06-14T14:24:02;1.20;;;1.00;;
68438;SDS011;55421;51.600;5.718;2023-06-14T14:26:29;1.20;;;1.10;;
68438;SDS011;55421;51.600;5.718;2023-06-14T14:28:56;3.10;;;1.20;;
68438;SDS011;55421;51.600;5.718;2023-06-14T14:31:26;2.70;;;1.10;;
68438;SDS011;55421;51.600;5.718;2023-06-14T14:33:53;3.50;;;1.10;;
68438;SDS011;55421;51.600;5.718;2023-06-14T14:36:20;1.80;;;1.20;;
68438;SDS011;55421;51.600;5.718;2023-06-14T14:38:46;4.20;;;1.20;;
68438;SDS011;55421;51.600;5.718;2023-06-14T14:41:13;3.10;;;1.40;;
68438;SDS011;55421;51.600;5.718;2023-06-14T14:43:40;3.20;;;1.20;;
68438;SDS011;55421;51.600;5.718;2023-06-14T14:46:06;3.30;;;1.50;;
68438;SDS011;55421;51.600;5.718;2023-06-14T14:48:33;3.00;;;1.50;;
68438;SDS011;55421;51.600;5.718;2023-06-14T14:50:59;1.10;;;1.10;;
68438;SDS011;55421;51.600;5.718;2023-06-14T14:53:26;3.80;;;1.40;;
68438;SDS011;55421;51.600;5.718;2023-06-14T14:55:52;2.90;;;1.10;;
68438;SDS011;55421;51.600;5.718;2023-06-14T14:58:19;2.30;;;1.80;;
68438;SDS011;55421;51.600;5.718;2023-06-14T15:00:46;2.50;;;1.10;;
68438;SDS011;55421;51.600;5.718;2023-06-14T15:03:13;2.10;;;1.30;;
68438;SDS011;55421;51.600;5.718;2023-06-14T15:05:40;2.30;;;1.20;;
68438;SDS011;55421;51.600;5.718;2023-06-14T15:08:07;5.80;;;1.30;;